Tiempo atmosférico en la estación meteorológica de Roncesvalles, Navarra (940 m.)



Fecha
DESCASC
Temp. máxima en grados centígrados (hora)
DESCASC
Temp. mínima en grados centígrados (hora)
DESCASC
Temp. media en grados centígrados
DESCASC
Racha de viento máxima en m/sg (hora)
DESCASC
Velocidad máxima media en intervalos de 10 minutos(hora)
DESCASC
Precipitaciones diarias en mm
DESCASC
Precipitaciones de 00:00 a 06:00 en mm
DESCASC
Precipitaciones de 06:00 a 12:00 en mm
DESCASC
Precipitaciones de 12:00 a 18:00 en mm
DESCASC
Precipitaciones de 18:00 a 24:00 en mm
DESCASC
05-04-2020 14.8 (18:00) 6.8 (07:30) 10.8 13.33 (12:10) 7.5 (12:10) 0 0 0 0 0
04-04-2020 16.3 (17:20) 0.8 (01:00) 8.5 10.28 (12:30) 5.83 (12:30) 0 0 0 0 0
03-04-2020 7.8 (16:30) 1.2 (23:59) 4.5 10.83 (04:00) 5.56 (04:00) 0 0 0 0 0
02-04-2020 10.2 (15:10) 2.1 (00:00) 6.1 10 (23:30) 5.28 (21:50) 1 1 0 0 0
01-04-2020 9.7 (13:30) 5.1 (00:00) 7.4 5.28 (03:40) 2.78 (12:30) 10.4 0 0 5.6 4.8
31-03-2020 7.5 (16:20) -2.1 (-00:0) 2.7 5 (00:30) 2.78 (00:30) 9 1.6 5 1.2 1.2
30-03-2020 0.2 (17:20) -3.8 (-00:0) -1.8 10.28 (03:00) 3.33 (06:50) 0.8 0.6 0.2 0 0
29-03-2020 8.6 (13:50) -0.5 (-00:0) 4.1 9.17 (23:00) 5 (00:20) 0.6 0 0 0 0.6
28-03-2020 11.1 (16:00) -0.9 (-00:0) 5.1 7.5 (14:10) 4.72 (23:59) 0 0 0 0 0
27-03-2020 7.2 (15:50) -3.4 (-00:0) 1.9 8.89 (12:50) 4.44 (14:50) 0 0 0 0 0
26-03-2020 6.1 (14:00) -1.3 (-00:0) 2.4 10.56 (13:10) 5 (13:10) 0 0 0 0 0
25-03-2020 11.7 (15:30) -0.9 (-00:0) 5.4 7.22 (16:50) 3.89 (17:20) 0 0 0 0 0
24-03-2020 12.1 (16:50) 3.9 (00:00) 8 8.61 (17:30) 3.89 (13:50) 0 0 0 0 0
23-03-2020 11.3 (12:50) 5.6 (00:00) 8.5 7.5 (14:40) 3.89 (14:40) 4 0 0.4 1.8 1.8
22-03-2020 12 (12:30) 2.7 (03:20) 7.4 7.22 (14:50) 3.89 (16:40) 0 0 0 0 0
21-03-2020 13.5 (15:20) 3 (00:00) 8.3 7.22 (13:00) 3.89 (12:10) 0 0 0 0 0
20-03-2020 13.6 (14:20) 5.4 (00:00) 9.5 8.33 (14:00) 5 (13:20) 0 0 0 0 0
19-03-2020 15.3 (13:30) 5.8 (00:00) 10.6 8.89 (15:30) 5 (15:30) 0 0 0 0 0
18-03-2020 14.5 (16:10) 3.8 (00:00) 9.1 5.28 (13:40) 3.06 (13:40) 0 0 0 0 0
17-03-2020 11.8 (15:40) 4.9 (00:00) 8.4 8.06 (06:00) 4.17 (07:40) 0.2 0.2 0 0 0
16-03-2020 5 (22:10) 1.5 (00:00) 3.3 9.17 (18:00) 4.17 (09:20) 32 19.4 10 1 1.6
15-03-2020 16.4 (15:10) 0.6 (00:00) 8.5 10.56 (11:50) 6.11 (13:30) 27.4 0 0 0.6 26.8
14-03-2020 8 (16:10) 0.6 (00:00) 4.3 9.44 (14:30) 5.28 (08:50) 0 0 0 0 0
13-03-2020 5.4 (00:00) 2.2 (17:20) 3.8 11.11 (16:20) 6.39 (16:20) 2.8 1.8 0.8 0.2 0
12-03-2020 12.4 (00:00) 5.4 (00:00) 8.9 11.94 (23:30) 6.39 (23:30) 2.2 0 0 0 2.2
11-03-2020 20.4 (16:10) 4.9 (00:00) 12.6 5.56 (16:20) 3.06 (14:10) 0 0 0 0 0
10-03-2020 14.1 (13:00) 3.5 (00:00) 8.8 8.33 (17:10) 3.89 (11:00) 0 0 0 0 0
09-03-2020 5 (14:30) 1.9 (00:00) 3.4 9.72 (11:10) 3.06 (11:10) 32.6 13 15 4.4 0.2
08-03-2020 13.1 (13:30) -1.4 (-00:0) 5.9 11.67 (21:30) 4.44 (22:20) 2.2 0 0 0 2.2

Gráficas

Temp. máximas Temp. mínimas Temp. medias Precipitaciones Rachas de viento máximas Velocidades máximas media en intervalos de 10 minutos

Datos horarios

Fecha y hora oficial Temperatura (ºC) Velocidad del viento (km/h) Dirección del viento Racha (km/h) Dirección de racha Precipitación (mm) Presión (hPa) Tendencia (hPa) Humedad (%)
2020-04-06 23:00:00 9.1 2 Sudoeste 8 Sur 1.2 -- -- 100
2020-04-06 22:00:00 9.4 0 Calma 3 Norte 0 -- -- 100
2020-04-06 21:00:00 9.6 3 Norte 5 Norte 0.2 -- -- 100
2020-04-06 20:00:00 10 0 Calma 5 Nordeste 0 -- -- 100
2020-04-06 19:00:00 10.5 2 Este 10 Sur 1.6 -- -- 97
2020-04-06 18:00:00 11.6 4 Sudeste 12 Sudeste 0 -- -- 85
2020-04-06 17:00:00 11.8 6 Sudeste 17 Este 0 -- -- 83
2020-04-06 16:00:00 12 8 Este 16 Sudeste 0 -- -- 83
2020-04-06 15:00:00 11.1 9 Sudoeste 18 Sur 0.4 -- -- 87
2020-04-06 14:00:00 11.4 12 Sur 26 Sur 0 -- -- 80
2020-04-06 13:00:00 10.8 7 Sur 22 Sur 0 -- -- 83
2020-04-06 12:00:00 10.6 8 Sur 18 Sur 0 -- -- 88
2020-04-06 11:00:00 9.7 9 Sur 17 Sur 0 -- -- 90
2020-04-06 10:00:00 8.9 5 Sur 14 Sudeste 0 -- -- 90
2020-04-06 09:00:00 8.1 3 Sudeste 14 Este 0 -- -- 92
2020-04-06 08:00:00 8 8 Este 18 Este 0.2 -- -- 90
2020-04-06 07:00:00 7.6 5 Sur 24 Este 0.4 -- -- 92
2020-04-06 06:00:00 7.7 6 Sudeste 16 Este 0.4 -- -- 91
2020-04-06 05:00:00 8.2 5 Sudeste 16 Este 1 -- -- 86
2020-04-06 04:00:00 9.1 6 Este 22 Sur 0.2 -- -- 76
2020-04-06 03:00:00 10.4 6 Sur 22 Sudeste 0 -- -- 64
2020-04-06 02:00:00 9.9 7 Sudeste 19 Sudeste 0 -- -- 65
2020-04-06 01:00:00 9.8 8 Sur 21 Sur 0 -- -- 66
2020-04-06 00:00:00 9.9 6 Sur 20 Sudeste 0 -- -- 69
2020-04-05 23:00:00 10.8 6 Sur 14 Sur 0 -- -- 65
2020-04-05 22:00:00 10.3 5 Sur 13 Sur 0 -- -- 68
2020-04-05 21:00:00 10.8 4 Sudoeste 22 Sudoeste 0 -- -- 66
2020-04-05 20:00:00 12.4 10 Sur 28 Sudoeste 0 -- -- 61
2020-04-05 19:00:00 13.7 17 Sur 32 Sudoeste 0 -- -- 54
2020-04-05 18:00:00 14.8 18 Sur 36 Sudeste 0 -- -- 54
2020-04-05 17:00:00 14.4 22 Sur 39 Sur 0 -- -- 54
2020-04-05 16:00:00 12.9 23 Sur 38 Sur 0 -- -- 58
2020-04-05 15:00:00 12.3 21 Sur 45 Sur 0 -- -- 57
2020-04-05 14:00:00 12.6 21 Sur 41 Sur 0 -- -- 55
2020-04-05 13:00:00 12.8 24 Sur 48 Sur 0 -- -- 56
2020-04-05 12:00:00 11.1 21 Sudoeste 42 Sudoeste 0 -- -- 51
2020-04-05 11:00:00 10.7 23 Sur 44 Sur 0 -- -- 49
2020-04-05 10:00:00 9.3 19 Sur 37 Sudeste 0 -- -- 55
2020-04-05 09:00:00 8 10 Sur 33 Este 0 -- -- 56
2020-04-05 08:00:00 7.3 10 Sur 22 Sur 0 -- -- 59
2020-04-05 07:00:00 7.1 9 Sur 29 Sudeste 0 -- -- 61
2020-04-05 06:00:00 7.2 8 Sudeste 41 Sudeste 0 -- -- 60
2020-04-05 05:00:00 7.4 9 Sudeste 30 Sudeste 0 -- -- 64
2020-04-05 04:00:00 7.4 9 Sur 28 Sur 0 -- -- 69
2020-04-05 03:00:00 7.6 14 Sur 32 Sur 0 -- -- 76
2020-04-05 02:00:00 8.3 5 Sudeste 30 Sudeste 0 -- -- 73
2020-04-05 01:00:00 9.1 9 Sur 28 Este 0 -- -- 72
2020-04-05 00:00:00 9.8 14 Sudeste 28 Sudeste 0 -- -- 69
2020-04-04 23:00:00 10.2 9 Sudeste 30 Sudeste 0 -- -- 66
2020-04-04 22:00:00 10.7 9 Sudeste 20 Sudeste 0 -- -- 52
2020-04-04 21:00:00 10.8 5 Sur 21 Sur 0 -- -- 41
2020-04-04 20:00:00 12.5 13 Sur 35 Sudoeste 0 -- -- 45
2020-04-04 19:00:00 14.2 15 Sur 27 Sur 0 -- -- 48
2020-04-04 18:00:00 15.5 17 Sur 32 Sudoeste 0 -- -- 49
2020-04-04 17:00:00 16.2 15 Sur 33 Sur 0 -- -- 49
2020-04-04 16:00:00 15.7 16 Sur 34 Sur 0 -- -- 51
2020-04-04 15:00:00 15.1 17 Sur 33 Sudoeste 0 -- -- 59
2020-04-04 14:00:00 13.7 20 Sur 36 Sur 0 -- -- 65
2020-04-04 13:00:00 12.5 21 Sur 37 Sur 0 -- -- 67
2020-04-04 12:00:00 11.7 16 Sur 33 Sur 0 -- -- 64
2020-04-04 11:00:00 10.9 13 Sur 26 Sur 0 -- -- 64
2020-04-04 10:00:00 9.1 9 Sur 17 Sur 0 -- -- 72
2020-04-04 09:00:00 7.3 2 Sudeste 11 Este 0 -- -- 71
2020-04-04 08:00:00 5 3 Este 13 Este 0 -- -- 79
2020-04-04 07:00:00 5 4 Este 14 Este 0 -- -- 78
2020-04-04 06:00:00 5.3 2 Nordeste 13 Sudeste 0 -- -- 77
2020-04-04 05:00:00 4.8 0 Calma 11 Sudeste 0 -- -- 77
2020-04-04 04:00:00 4.7 2 Sudoeste 8 Sudoeste 0 -- -- 77
2020-04-04 03:00:00 3.8 2 Nordeste 10 Este 0 -- -- 83
2020-04-04 02:00:00 2.8 3 Norte 5 Norte 0 -- -- 89
2020-04-04 01:00:00 0.8 0 Calma 3 Noroeste 0 -- -- 96
2020-04-04 00:00:00 1.2 0 Calma 4 Norte 0 -- -- 94
2020-04-03 23:00:00 2.2 0 Calma 13 Norte 0 -- -- 90
2020-04-03 22:00:00 3.5 2 Noroeste 29 Norte 0 -- -- 84
2020-04-03 21:00:00 5.1 13 Norte 27 Norte 0 -- -- 78
2020-04-03 20:00:00 6 15 Norte 30 Norte 0 -- -- 73
2020-04-03 19:00:00 7.2 16 Norte 30 Noroeste 0 -- -- 66
2020-04-03 18:00:00 7.6 15 Norte 30 Noroeste 0 -- -- 66
2020-04-03 17:00:00 7.8 15 Norte 30 Norte 0 -- -- 67
2020-04-03 16:00:00 7.7 14 Norte 31 Noroeste 0 -- -- 67
2020-04-03 15:00:00 7 14 Norte 33 Noroeste 0 -- -- 70
2020-04-03 14:00:00 6.4 12 Noroeste 30 Norte 0 -- -- 73
2020-04-03 13:00:00 5.4 10 Norte 28 Noroeste 0 -- -- 73
2020-04-03 12:00:00 5.4 10 Noroeste 29 Norte 0 -- -- 74
2020-04-03 11:00:00 4.8 9 Norte 21 Noroeste 0 -- -- 75
2020-04-03 10:00:00 3.6 5 Este 21 Nordeste 0 -- -- 80
2020-04-03 09:00:00 2.1 5 Sur 19 Este 0 -- -- 95
2020-04-03 08:00:00 1.9 6 Sudoeste 21 Noroeste 0 -- -- 97
2020-04-03 07:00:00 1.9 4 Sur 16 Sur 0 -- -- 95
2020-04-03 06:00:00 1.9 5 Sur 17 Oeste 0 -- -- 92
2020-04-03 05:00:00 1.7 4 Sudoeste 31 Norte 0 -- -- 91
2020-04-03 04:00:00 1.6 20 Norte 39 Norte 0 -- -- 91
2020-04-03 03:00:00 1.5 5 Oeste 23 Norte 0 -- -- 90
2020-04-03 02:00:00 1.7 9 Norte 39 Norte 0 -- -- 86
2020-04-03 01:00:00 1.8 12 Norte 32 Norte 0 -- -- 86
2020-04-03 00:00:00 2.1 14 Norte 36 Norte 0 -- -- 82
2020-04-02 23:00:00 2.5 16 Norte 31 Norte 0 -- -- 74
2020-04-02 22:00:00 3.1 18 Norte 33 Nordeste 0 -- -- 67
2020-04-02 21:00:00 4.1 8 Norte 29 Norte 0 -- -- 84
2020-04-02 20:00:00 6.1 6 Nordeste 30 Norte 0 -- -- 78
2020-04-02 19:00:00 7.9 9 Nordeste 27 Norte 0 -- -- 69
2020-04-02 18:00:00 8.5 6 Oeste 31 Noroeste 0 -- -- 68
2020-04-02 17:00:00 8.7 8 Sur 29 Noroeste 0 -- -- 71
2020-04-02 16:00:00 9.4 11 Sudeste 33 Noroeste 0 -- -- 79
2020-04-02 15:00:00 10 9 Sur 23 Oeste 0 -- -- 71
2020-04-02 14:00:00 9 8 Sudeste 32 Noroeste 0 -- -- 80
2020-04-02 13:00:00 7 15 Norte 30 Noroeste 0 -- -- 89
2020-04-02 12:00:00 6.5 13 Noroeste 28 Noroeste 0 -- -- 87
2020-04-02 11:00:00 6 11 Noroeste 35 Norte 0 -- -- 92
2020-04-02 10:00:00 5.4 7 Noroeste 26 Noroeste 0 -- -- 97
2020-04-02 09:00:00 5.8 7 Sudeste 30 Este 0 -- -- 94
2020-04-02 08:00:00 5 7 Oeste 18 Noroeste 0 -- -- 100
2020-04-02 07:00:00 5.1 5 Oeste 18 Norte 0 -- -- 100
2020-04-02 06:00:00 5.3 5 Noroeste 13 Noroeste 0 -- -- 100
2020-04-02 05:00:00 5 0 Calma 4 Oeste 0 -- -- 100
2020-04-02 04:00:00 5 0 Calma 9 Sudoeste 0 -- -- 100
2020-04-02 03:00:00 5.2 4 Sudoeste 8 Oeste 0 -- -- 100
2020-04-02 02:00:00 5.3 0 Calma 3 Sudeste 0 -- -- 100
2020-04-02 01:00:00 5.3 0 Calma 0 Calma 1 -- -- 100
2020-04-02 00:00:00 5.3 0 Calma 3 Sudeste 1.2 -- -- 100
2020-04-01 23:00:00 5.3 0 Calma 2 Norte 1.4 -- -- 100
2020-04-01 22:00:00 5.4 0 Calma 3 Sudoeste 0.2 -- -- 100
2020-04-01 21:00:00 5.6 0 Calma 5 Norte 0 -- -- 100
2020-04-01 20:00:00 5.9 3 Norte 4 Nordeste 1 -- -- 100
2020-04-01 19:00:00 6.3 0 Calma 5 Sudeste 1 -- -- 98
2020-04-01 18:00:00 7 0 Calma 8 Sur 0.4 -- -- 93
2020-04-01 17:00:00 7.5 4 Sur 7 Sur 1.8 -- -- 96
2020-04-01 16:00:00 6.9 2 Sudoeste 8 Oeste 3.4 -- -- 99
2020-04-01 15:00:00 7.5 2 Oeste 12 Sudoeste 0 -- -- 91
2020-04-01 14:00:00 8.4 7 Sudoeste 15 Sur 0 -- -- 86
2020-04-01 13:00:00 8.9 8 Sur 17 Sur 0 -- -- 81
2020-04-01 12:00:00 8.8 7 Sur 15 Sur 0 -- -- 82
2020-04-01 11:00:00 8.1 6 Sudeste 17 Sudeste 0 -- -- 82
2020-04-01 10:00:00 7.5 6 Sudeste 18 Este 0 -- -- 84
2020-04-01 09:00:00 6.5 2 Este 11 Este 0 -- -- 86
2020-04-01 08:00:00 5.6 0 Calma 11 Este 0 -- -- 89
2020-04-01 07:00:00 6.1 7 Este 14 Este 0 -- -- 87
2020-04-01 06:00:00 5.8 3 Sudeste 12 Sudeste 0 -- -- 90
2020-04-01 05:00:00 6 0 Calma 13 Sudeste 0 -- -- 90
2020-04-01 04:00:00 5.7 5 Sur 19 Sudeste 0 -- -- 92
2020-04-01 03:00:00 5.6 2 Sur 13 Este 0 -- -- 93
2020-04-01 02:00:00 5.1 3 Sur 15 Sudeste 0 -- -- 98
2020-04-01 01:00:00 5.4 3 Este 9 Sur 0 -- -- 96
2020-04-01 00:00:00 5.5 4 Este 10 Sudeste 0 -- -- 95
2020-03-31 23:00:00 5.3 3 Este 8 Sudeste 0 -- -- 99
2020-03-31 22:00:00 5.3 2 Nordeste 5 Este 0 -- -- 100
2020-03-31 21:00:00 5.2 0 Calma 4 Norte 0.2 -- -- 100
2020-03-31 20:00:00 5.8 2 Nordeste 8 Sudeste 0.4 -- -- 98
2020-03-31 19:00:00 6.2 3 Este 13 Este 0.6 -- -- 95
2020-03-31 18:00:00 6.6 4 Sur 12 Sur 0.4 -- -- 92
2020-03-31 17:00:00 7.2 3 Sur 9 Este 0.2 -- -- 96
2020-03-31 16:00:00 7.3 3 Sudeste 11 Sudeste 0.2 -- -- 92
2020-03-31 15:00:00 6.8 3 Sur 9 Sudeste 0.4 -- -- 93
2020-03-31 14:00:00 6.5 5 Este 10 Sudeste 0 -- -- 86
2020-03-31 13:00:00 4.8 0 Calma 4 Sur 0 -- -- 92
2020-03-31 12:00:00 2.2 0 Calma 5 Nordeste 0.6 -- -- 99
2020-03-31 11:00:00 0.9 0 Calma 3 Noroeste 0.2 -- -- 100
2020-03-31 10:00:00 0 0 Calma 4 Noroeste 0.4 -- -- 100
2020-03-31 09:00:00 -0.8 0 Calma 4 Sudoeste 0.8 -- -- 100
2020-03-31 08:00:00 -1.5 0 Calma 10 Este 1.4 -- -- 100
2020-03-31 07:00:00 -1.9 0 Calma 4 Este 1.6 -- -- 100
2020-03-31 06:00:00 -2 0 Calma 3 Sudoeste 1.2 -- -- 100
2020-03-31 05:00:00 -1.9 2 Sudoeste 18 Norte 0.2 -- -- 99
2020-03-31 04:00:00 -1.9 5 Norte 13 Norte 0.2 -- -- 97
2020-03-31 03:00:00 -1.9 0 Calma 17 Norte 0 -- -- 98
2020-03-31 02:00:00 -2.1 9 Norte 18 Norte 0 -- -- 99
2020-03-31 01:00:00 -2.1 8 Norte 18 Norte 0 -- -- 99
2020-03-31 00:00:00 -2 7 Norte 17 Nordeste 0 -- -- 94
2020-03-30 23:00:00 -1.9 3 Este 11 Noroeste 0 -- -- 95
2020-03-30 22:00:00 -2 6 Este 13 Nordeste 0 -- -- 94
2020-03-30 21:00:00 -1.5 5 Este 10 Este 0 -- -- 94
2020-03-30 20:00:00 -1.2 5 Oeste 16 Norte 0 -- -- 89
2020-03-30 19:00:00 -0.8 4 Noroeste 15 Noroeste 0 -- -- 86
2020-03-30 18:00:00 -0.2 4 Noroeste 17 Noroeste 0 -- -- 83
2020-03-30 17:00:00 -0.7 3 Sudoeste 15 Este 0 -- -- 84
2020-03-30 16:00:00 -0.9 5 Nordeste 14 Norte 0 -- -- 84
2020-03-30 15:00:00 -1.1 4 Sur 14 Nordeste 0 -- -- 87
2020-03-30 14:00:00 -0.6 4 Sudoeste 21 Este 0 -- -- 85
2020-03-30 13:00:00 -1.5 6 Este 25 Este 0 -- -- 84
2020-03-30 12:00:00 -0.9 9 Sudeste 27 Este 0 -- -- 86
2020-03-30 11:00:00 -2.4 6 Sudeste 18 Este 0 -- -- 97
2020-03-30 10:00:00 -3.4 6 Sudeste 19 Este 0 -- -- 99
2020-03-30 09:00:00 -3.7 8 Sudeste 30 Nordeste 0 -- -- 99
2020-03-30 08:00:00 -3.6 11 Este 32 Este 0 -- -- 100
2020-03-30 07:00:00 -3.4 10 Este 33 Sudeste 0.2 -- -- 100
2020-03-30 06:00:00 -3.1 8 Sudeste 26 Este 0 -- -- 100
2020-03-30 05:00:00 -2.7 10 Sudeste 32 Este 0 -- -- 100
2020-03-30 04:00:00 -2.5 10 Sudeste 28 Sudeste 0 -- -- 100
2020-03-30 03:00:00 -2.2 9 Sudeste 37 Este 0.2 -- -- 100
2020-03-30 02:00:00 -1.9 9 Noroeste 33 Norte 0.2 -- -- 100
2020-03-30 01:00:00 -1.4 5 Sur 23 Nordeste 0.2 -- -- 100
2020-03-30 00:00:00 -0.5 5 Este 24 Norte 0.6 -- -- 100
2020-03-29 23:00:00 0.9 13 Noroeste 33 Noroeste 0 -- -- 100
2020-03-29 22:00:00 3.5 4 Sudoeste 18 Oeste 0 -- -- 100
2020-03-29 21:00:00 3.8 5 Noroeste 21 Este 0 -- -- 99
2020-03-29 20:00:00 4.3 5 Noroeste 20 Nordeste 0 -- -- 94
2020-03-29 19:00:00 5.4 4 Nordeste 20 Norte 0 -- -- 85
2020-03-29 18:00:00 5.4 4 Este 15 Noroeste 0 -- -- 87
2020-03-29 17:00:00 6.3 5 Sudoeste 24 Este 0 -- -- 82
2020-03-29 16:00:00 6.3 8 Sudeste 28 Este 0 -- -- 81
2020-03-29 15:00:00 6.5 10 Este 23 Este 0 -- -- 82
2020-03-29 14:00:00 7.3 6 Este 32 Este 0 -- -- 70
2020-03-29 13:00:00 6.8 8 Noroeste 25 Este 0 -- -- 81
2020-03-29 12:00:00 7.1 6 Sudoeste 24 Este 0 -- -- 73
2020-03-29 11:00:00 5.7 9 Oeste 26 Noroeste 0 -- -- 79
2020-03-29 10:00:00 4.4 9 Noroeste 31 Norte 0 -- -- 80
2020-03-29 09:00:00 3.1 14 Norte 32 Norte 0 -- -- 81
2020-03-29 08:00:00 2.6 12 Norte 26 Norte 0 -- -- 77
2020-03-29 07:00:00 2.9 13 Norte 31 Norte 0 -- -- 74
2020-03-29 06:00:00 2.8 10 Norte 28 Norte 0 -- -- 78
2020-03-29 05:00:00 2 4 Nordeste 13 Noroeste 0 -- -- 82
2020-03-29 03:00:00 3.1 6 Norte 28 Norte 0 -- -- 79
2020-03-29 01:00:00 3.6 17 Norte 30 Norte 0 -- -- 80
2020-03-29 00:00:00 3.9 17 Norte 27 Norte 0 -- -- 77
2020-03-28 23:00:00 4.7 10 Norte 24 Norte 0 -- -- 77
2020-03-28 22:00:00 5.1 9 Norte 21 Norte 0 -- -- 76
2020-03-28 21:00:00 5.7 12 Norte 21 Norte 0 -- -- 75
2020-03-28 20:00:00 6.2 6 Norte 20 Norte 0 -- -- 75
2020-03-28 19:00:00 7.5 9 Norte 23 Norte 0 -- -- 73
2020-03-28 18:00:00 9.1 12 Norte 24 Norte 0 -- -- 67
2020-03-28 17:00:00 10.3 12 Norte 22 Norte 0 -- -- 61
2020-03-28 16:00:00 11.1 8 Norte 24 Noroeste 0 -- -- 56
2020-03-28 15:00:00 11 10 Norte 27 Norte 0 -- -- 55
2020-03-28 14:00:00 10.7 9 Norte 25 Norte 0 -- -- 55
2020-03-28 13:00:00 9.7 11 Norte 26 Norte 0 -- -- 57
2020-03-28 12:00:00 8.6 16 Norte 27 Norte 0 -- -- 56
2020-03-28 11:00:00 8.2 14 Norte 24 Noroeste 0 -- -- 58
2020-03-28 10:00:00 8 8 Norte 19 Norte 0 -- -- 58
2020-03-28 09:00:00 5.3 0 Calma 3 Sudeste 0 -- -- 79
2020-03-28 08:00:00 1 0 Calma 2 Noroeste 0 -- -- 91
2020-03-28 07:00:00 -0.6 0 Calma 3 Norte 0 -- -- 92
2020-03-28 06:00:00 -0.5 0 Calma 3 Norte 0 -- -- 93
2020-03-28 05:00:00 0.3 2 Norte 4 Norte 0 -- -- 88
2020-03-28 04:00:00 0.5 0 Calma 3 Nordeste 0 -- -- 88
2020-03-28 03:00:00 1.1 2 Norte 4 Norte 0 -- -- 88
2020-03-28 02:00:00 1 0 Calma 13 Noroeste 0 -- -- 88
2020-03-28 01:00:00 3.2 5 Norte 16 Norte 0 -- -- 78
2020-03-28 00:00:00 3.6 9 Norte 19 Norte 0 -- -- 82
2020-03-27 23:00:00 3.7 5 Norte 19 Nordeste 0 -- -- 79
2020-03-27 22:00:00 4.1 6 Nordeste 23 Norte 0 -- -- 71
2020-03-27 21:00:00 4.4 8 Norte 25 Noroeste 0 -- -- 70
2020-03-27 20:00:00 5 5 Noroeste 25 Noroeste 0 -- -- 63
2020-03-27 19:00:00 5.5 9 Norte 29 Noroeste 0 -- -- 64
2020-03-27 18:00:00 6.2 15 Norte 29 Norte 0 -- -- 63
2020-03-27 17:00:00 6.8 16 Norte 31 Norte 0 -- -- 61
2020-03-27 16:00:00 7.1 15 Norte 30 Norte 0 -- -- 62
2020-03-27 15:00:00 6.7 15 Norte 29 Norte 0 -- -- 61
2020-03-27 14:00:00 6.8 12 Norte 30 Norte 0 -- -- 61
2020-03-27 13:00:00 5.8 14 Norte 32 Norte 0 -- -- 64
2020-03-27 12:00:00 5.1 15 Norte 31 Norte 0 -- -- 68
2020-03-27 11:00:00 4.1 15 Norte 26 Noroeste 0 -- -- 70
2020-03-27 10:00:00 3.4 13 Norte 24 Norte 0 -- -- 73
2020-03-27 09:00:00 2.7 6 Norte 16 Nordeste 0 -- -- 75
2020-03-27 08:00:00 -1 4 Sudeste 13 Sudoeste 0 -- -- 87
2020-03-27 07:00:00 -3.1 0 Calma 7 Nordeste 0 -- -- 96
2020-03-27 06:00:00 -0.8 4 Norte 12 Noroeste 0 -- -- 83
2020-03-27 05:00:00 -2.5 0 Calma 2 Nordeste 0 -- -- 90
2020-03-27 04:00:00 -2.5 0 Calma 2 Norte 0 -- -- 92
2020-03-27 03:00:00 -2.3 0 Calma 4 Nordeste 0 -- -- 92
2020-03-27 02:00:00 -2.4 0 Calma 8 Nordeste 0 -- -- 93
2020-03-27 01:00:00 -2.1 0 Calma 12 Nordeste 0 -- -- 93
2020-03-27 00:00:00 -1.3 2 Nordeste 12 Este 0 -- -- 91
2020-03-26 23:00:00 0.5 5 Norte 15 Noroeste 0 -- -- 84
2020-03-26 22:00:00 0.5 3 Este 14 Este 0 -- -- 80
2020-03-26 21:00:00 0.4 8 Norte 18 Norte 0 -- -- 78
2020-03-26 20:00:00 0.9 4 Norte 16 Este 0 -- -- 74
2020-03-26 19:00:00 1.9 8 Nordeste 19 Norte 0 -- -- 67
2020-03-26 18:00:00 3.4 4 Sudeste 23 Nordeste 0 -- -- 62
2020-03-26 17:00:00 3.7 6 Noroeste 30 Nordeste 0 -- -- 63
2020-03-26 16:00:00 5.1 8 Nordeste 32 Nordeste 0 -- -- 49
2020-03-26 15:00:00 5.2 14 Norte 29 Noroeste 0 -- -- 51
2020-03-26 14:00:00 6.1 9 Sudeste 38 Norte 0 -- -- 57
2020-03-26 13:00:00 4.4 17 Norte 37 Norte 0 -- -- 50
2020-03-26 12:00:00 3.9 15 Norte 37 Noroeste 0 -- -- 55
2020-03-26 11:00:00 3.9 9 Sur 28 Noroeste 0 -- -- 60
2020-03-26 10:00:00 3.4 11 Sudeste 32 Este 0 -- -- 68
2020-03-26 09:00:00 2.4 8 Sudoeste 27 Oeste 0 -- -- 85
2020-03-26 08:00:00 2.4 8 Oeste 29 Noroeste 0 -- -- 80
2020-03-26 07:00:00 2.4 7 Sudoeste 21 Sur 0 -- -- 87
2020-03-26 06:00:00 2.7 4 Sur 23 Noroeste 0 -- -- 80
2020-03-26 05:00:00 3.2 8 Oeste 21 Noroeste 0 -- -- 82
2020-03-26 04:00:00 3.6 5 Norte 17 Nordeste 0 -- -- 95
2020-03-26 03:00:00 3.2 3 Sudoeste 10 Sudoeste 0 -- -- 100
2020-03-26 02:00:00 3 2 Sur 11 Norte 0 -- -- 99
2020-03-26 01:00:00 2.6 3 Nordeste 18 Norte 0 -- -- 97
2020-03-26 00:00:00 -0.3 3 Norte 10 Noroeste 0 -- -- 93
2020-03-25 23:00:00 0.5 6 Norte 15 Norte 0 -- -- 89
2020-03-25 22:00:00 1.6 4 Norte 11 Nordeste 0 -- -- 87
2020-03-25 21:00:00 2.8 7 Noroeste 19 Norte 0 -- -- 88
2020-03-25 20:00:00 3.5 2 Noroeste 16 Oeste 0 -- -- 81
2020-03-25 19:00:00 5.9 3 Sudeste 17 Nordeste 0 -- -- 72
2020-03-25 18:00:00 7.8 9 Nordeste 26 Nordeste 0 -- -- 66
2020-03-25 17:00:00 9.8 12 Norte 26 Nordeste 0 -- -- 62
2020-03-25 16:00:00 11.6 6 Norte 23 Sudoeste 0 -- -- 43
2020-03-25 15:00:00 11.6 9 Sur 25 Sur 0 -- -- 55
2020-03-25 14:00:00 9.1 7 Sudoeste 21 Sudoeste 0 -- -- 67
2020-03-25 13:00:00 9.4 10 Sur 22 Sudoeste 0 -- -- 77
2020-03-25 12:00:00 8 9 Sudoeste 18 Sur 0 -- -- 82
2020-03-25 11:00:00 5.9 5 Sudoeste 13 Sudoeste 0 -- -- 91
2020-03-25 10:00:00 4.6 3 Sudoeste 11 Sudoeste 0 -- -- 97
2020-03-25 09:00:00 4.3 5 Sudoeste 11 Oeste 0 -- -- 100
2020-03-25 08:00:00 3.8 2 Sudoeste 4 Sudoeste 0 -- -- 100
2020-03-25 07:00:00 3.6 2 Sur 8 Sur 0 -- -- 100
2020-03-25 06:00:00 3.4 2 Sur 5 Oeste 0 -- -- 99
2020-03-25 05:00:00 1.3 0 Calma 2 Sudoeste 0 -- -- 100
2020-03-25 04:00:00 1.3 0 Calma 3 Norte 0 -- -- 100
2020-03-25 03:00:00 1.7 0 Calma 2 Norte 0 -- -- 97
2020-03-25 02:00:00 2 0 Calma 4 Este 0 -- -- 95
2020-03-25 01:00:00 3.4 0 Calma 6 Norte 0 -- -- 91
2020-03-25 00:00:00 3.9 0 Calma 5 Nordeste 0 -- -- 90
2020-03-24 23:00:00 5.4 5 Nordeste 8 Noroeste 0 -- -- 83
2020-03-24 22:00:00 5.6 4 Norte 10 Noroeste 0 -- -- 82
2020-03-24 21:00:00 7.2 4 Norte 13 Norte 0 -- -- 73
2020-03-24 20:00:00 8.1 3 Nordeste 18 Norte 0 -- -- 68
2020-03-24 19:00:00 9.7 5 Nordeste 21 Noroeste 0 -- -- 66
2020-03-24 18:00:00 11.2 6 Norte 31 Noroeste 0 -- -- 66
2020-03-24 17:00:00 11.8 12 Noroeste 28 Noroeste 0 -- -- 67
2020-03-24 16:00:00 11.7 12 Norte 29 Norte 0 -- -- 71
2020-03-24 15:00:00 11.7 14 Norte 28 Norte 0 -- -- 71
2020-03-24 14:00:00 11.5 13 Norte 25 Norte 0 -- -- 71
2020-03-24 13:00:00 11 9 Noroeste 20 Norte 0 -- -- 69
2020-03-24 12:00:00 10.1 4 Noroeste 12 Sudoeste 0 -- -- 76
2020-03-24 11:00:00 9.4 3 Sudoeste 10 Sudoeste 0 -- -- 84
2020-03-24 10:00:00 8.7 5 Sudoeste 12 Sudoeste 0 -- -- 91
2020-03-24 09:00:00 6.4 0 Calma 2 Sur 0 -- -- 100
2020-03-24 08:00:00 5.2 2 Este 3 Nordeste 0 -- -- 100
2020-03-24 07:00:00 4.8 2 Nordeste 4 Nordeste 0 -- -- 100
2020-03-24 06:00:00 5 3 Norte 5 Norte 0 -- -- 100
2020-03-24 05:00:00 4.9 0 Calma 4 Norte 0 -- -- 100
2020-03-24 04:00:00 4.9 0 Calma 3 Nordeste 0 -- -- 100
2020-03-24 03:00:00 4.9 0 Calma 4 Norte 0 -- -- 100
2020-03-24 02:00:00 5 3 Norte 8 Norte 0 -- -- 100
2020-03-24 01:00:00 4.6 2 Norte 7 Norte 0 -- -- 100
2020-03-24 00:00:00 6 3 Nordeste 6 Norte 0.2 -- -- 100
2020-03-23 23:00:00 6.5 3 Norte 6 Norte 0 -- -- 100
2020-03-23 22:00:00 6.1 2 Norte 5 Norte 0 -- -- 100
2020-03-23 21:00:00 7 2 Norte 5 Este 0.4 -- -- 100
2020-03-23 20:00:00 7.3 0 Calma 13 Nordeste 0 -- -- 100
2020-03-23 19:00:00 7.7 8 Nordeste 21 Norte 1.2 -- -- 95
2020-03-23 18:00:00 8 10 Norte 23 Norte 0 -- -- 97
2020-03-23 17:00:00 8.3 11 Norte 23 Norte 0.6 -- -- 98
2020-03-23 16:00:00 8.2 12 Norte 23 Norte 1.2 -- -- 96
2020-03-23 15:00:00 8.2 13 Norte 27 Noroeste 0 -- -- 94
2020-03-23 14:00:00 9.7 12 Norte 24 Norte 0 -- -- 86
2020-03-23 13:00:00 10.6 6 Norte 15 Norte 0 -- -- 78
2020-03-23 12:00:00 8.2 6 Nordeste 14 Norte 0.2 -- -- 90
2020-03-23 11:00:00 7.7 0 Calma 9 Nordeste 0 -- -- 90
2020-03-23 10:00:00 6.7 3 Nordeste 5 Nordeste 0.2 -- -- 100
2020-03-23 09:00:00 6.4 0 Calma 12 Norte 0 -- -- 99
2020-03-23 08:00:00 5.7 2 Sur 4 Sur 0 -- -- 100
2020-03-23 07:00:00 5.7 0 Calma 5 Este 0 -- -- 98
2020-03-23 06:00:00 5.8 0 Calma 4 Nordeste 0 -- -- 96
2020-03-23 05:00:00 6.2 0 Calma 3 Sudeste 0 -- -- 92
2020-03-23 04:00:00 6.5 0 Calma 5 Nordeste 0 -- -- 91
2020-03-23 03:00:00 6.2 2 Este 7 Este 0 -- -- 93
2020-03-23 02:00:00 6.5 3 Este 7 Este 0 -- -- 93
2020-03-23 01:00:00 6.6 0 Calma 6 Sudeste 0 -- -- 93
2020-03-23 00:00:00 5.9 0 Calma 4 Norte 0 -- -- 99
2020-03-22 23:00:00 5.9 0 Calma 9 Norte 0 -- -- 100
2020-03-22 22:00:00 6.7 3 Norte 19 Norte 0 -- -- 98
2020-03-22 21:00:00 7.3 10 Norte 19 Norte 0 -- -- 96
2020-03-22 20:00:00 7.2 7 Norte 18 Norte 0 -- -- 96
2020-03-22 19:00:00 7.7 8 Norte 21 Norte 0 -- -- 94
2020-03-22 18:00:00 8 10 Norte 25 Norte 0 -- -- 91
2020-03-22 17:00:00 9 13 Norte 25 Norte 0 -- -- 86
2020-03-22 16:00:00 10.2 14 Norte 23 Norte 0 -- -- 78
2020-03-22 15:00:00 11 12 Norte 26 Norte 0 -- -- 72
2020-03-22 14:00:00 11.1 11 Norte 23 Norte 0 -- -- 69
2020-03-22 13:00:00 11.2 10 Norte 20 Norte 0 -- -- 66
2020-03-22 12:00:00 11.3 8 Nordeste 18 Nordeste 0 -- -- 65
2020-03-22 11:00:00 11.2 8 Nordeste 22 Este 0 -- -- 65
2020-03-22 10:00:00 9.9 5 Sudeste 9 Sur 0 -- -- 71
2020-03-22 09:00:00 7 3 Sur 4 Sur 0 -- -- 79
2020-03-22 08:00:00 4.4 0 Calma 2 Norte 0 -- -- 87
2020-03-22 07:00:00 3.9 0 Calma 2 Nordeste 0 -- -- 92
2020-03-22 06:00:00 4.2 0 Calma 2 Este 0 -- -- 90
2020-03-22 05:00:00 4.1 0 Calma 4 Este 0 -- -- 87
2020-03-22 04:00:00 4.8 0 Calma 3 Norte 0 -- -- 83
2020-03-22 03:00:00 4 0 Calma 4 Norte 0 -- -- 88
2020-03-22 02:00:00 4 0 Calma 3 Norte 0 -- -- 85
2020-03-22 01:00:00 4.5 0 Calma 4 Noroeste 0 -- -- 84
2020-03-22 00:00:00 5.4 2 Norte 3 Norte 0 -- -- 81
2020-03-21 23:00:00 5.2 2 Norte 3 Norte 0 -- -- 83
2020-03-21 22:00:00 6.1 2 Nordeste 3 Nordeste 0 -- -- 82
2020-03-21 21:00:00 7.4 0 Calma 4 Norte 0 -- -- 78
2020-03-21 20:00:00 8.1 2 Noroeste 6 Sudoeste 0 -- -- 76
2020-03-21 19:00:00 9.9 3 Sudoeste 13 Sudoeste 0 -- -- 65
2020-03-21 18:00:00 11.3 6 Sudoeste 19 Sudoeste 0 -- -- 61
2020-03-21 17:00:00 13 8 Sudoeste 22 Sur 0 -- -- 57
2020-03-21 16:00:00 13 10 Sudoeste 24 Sudoeste 0 -- -- 57
2020-03-21 15:00:00 13.4 6 Sudoeste 18 Sudoeste 0 -- -- 56
2020-03-21 14:00:00 12.1 9 Sudoeste 23 Sudoeste 0 -- -- 64
2020-03-21 13:00:00 11.9 10 Sudoeste 26 Sudoeste 0 -- -- 61
2020-03-21 12:00:00 11 13 Sur 23 Sur 0 -- -- 66
2020-03-21 11:00:00 9.7 9 Sudeste 20 Sur 0 -- -- 70
2020-03-21 10:00:00 7.8 8 Sur 15 Sudeste 0 -- -- 84
2020-03-21 09:00:00 5.9 3 Sudeste 15 Sudeste 0 -- -- 88
2020-03-21 08:00:00 4.4 5 Sudeste 12 Sudeste 0 -- -- 92
2020-03-21 07:00:00 3.9 4 Sudeste 11 Sur 0 -- -- 95
2020-03-21 06:00:00 4.1 3 Este 10 Este 0 -- -- 97
2020-03-21 05:00:00 3.3 3 Sudoeste 5 Sudoeste 0 -- -- 99
2020-03-21 04:00:00 3.1 0 Calma 5 Oeste 0 -- -- 99
2020-03-21 03:00:00 3.9 2 Sudoeste 6 Sudeste 0 -- -- 92
2020-03-21 02:00:00 4.9 2 Sudoeste 8 Sudeste 0 -- -- 88
2020-03-21 01:00:00 5.7 2 Noroeste 4 Noroeste 0 -- -- 85
2020-03-21 00:00:00 5.8 0 Calma 8 Sur 0 -- -- 85
2020-03-20 23:00:00 5.8 0 Calma 8 Sur 0 -- -- 87
2020-03-20 22:00:00 6.5 3 Sudoeste 15 Sur 0 -- -- 84
2020-03-20 21:00:00 7.5 7 Sudoeste 17 Sur 0 -- -- 80
2020-03-20 20:00:00 8.3 5 Sur 18 Sur 0 -- -- 74
2020-03-20 19:00:00 9.3 8 Sur 20 Sur 0 -- -- 70
2020-03-20 18:00:00 10.8 14 Sur 26 Sur 0 -- -- 68
2020-03-20 17:00:00 12.4 9 Sudoeste 23 Sudoeste 0 -- -- 63
2020-03-20 16:00:00 13.4 10 Sudoeste 24 Sur 0 -- -- 64
2020-03-20 15:00:00 13.1 10 Sudoeste 24 Sudoeste 0 -- -- 61
2020-03-20 14:00:00 12.8 16 Sur 30 Sudoeste 0 -- -- 61
2020-03-20 13:00:00 11.8 17 Sur 29 Sudeste 0 -- -- 69
2020-03-20 12:00:00 10.8 17 Sur 28 Sur 0 -- -- 65
2020-03-20 11:00:00 10.1 14 Sur 24 Sudoeste 0 -- -- 71
2020-03-20 10:00:00 9 6 Sudoeste 14 Sur 0 -- -- 73
2020-03-20 09:00:00 7.4 5 Sur 13 Sudeste 0 -- -- 76
2020-03-20 08:00:00 6.4 3 Sudeste 6 Este 0 -- -- 76
2020-03-20 07:00:00 5.4 0 Calma 6 Sudeste 0 -- -- 81
2020-03-20 06:00:00 5.8 3 Sur 9 Sur 0 -- -- 80
2020-03-20 05:00:00 5.8 0 Calma 10 Sur 0 -- -- 81
2020-03-20 04:00:00 6.2 2 Sudeste 11 Este 0 -- -- 82
2020-03-20 03:00:00 6.3 0 Calma 4 Este 0 -- -- 84
2020-03-20 02:00:00 6.6 0 Calma 6 Sudoeste 0 -- -- 84
2020-03-20 01:00:00 6.8 2 Sudoeste 9 Sur 0 -- -- 82
2020-03-20 00:00:00 7.1 4 Sur 15 Sur 0 -- -- 79
2020-03-19 23:00:00 8.4 5 Sur 15 Sur 0 -- -- 69
2020-03-19 22:00:00 8.3 3 Sudoeste 10 Sur 0 -- -- 77
2020-03-19 21:00:00 9 5 Sur 9 Sur 0 -- -- 81
2020-03-19 20:00:00 9.8 4 Sur 18 Sur 0 -- -- 80
2020-03-19 19:00:00 11.2 9 Sur 19 Sur 0 -- -- 79
2020-03-19 18:00:00 12.2 8 Sur 21 Sur 0 -- -- 75
2020-03-19 17:00:00 13 12 Sur 25 Sudoeste 0 -- -- 73
2020-03-19 16:00:00 14.1 12 Sudoeste 32 Sur 0 -- -- 71
2020-03-19 15:00:00 14 12 Sur 27 Sur 0 -- -- 69
2020-03-19 14:00:00 14.8 12 Sudoeste 25 Sur 0 -- -- 63
2020-03-19 13:00:00 14.2 13 Sudoeste 26 Sur 0 -- -- 60
2020-03-19 12:00:00 13.6 10 Sudoeste 22 Sudoeste 0 -- -- 65
2020-03-19 11:00:00 12.7 9 Sudoeste 20 Sudoeste 0 -- -- 65
2020-03-19 10:00:00 10.5 5 Sudoeste 11 Sudeste 0 -- -- 85
2020-03-19 09:00:00 9.1 0 Calma 4 Sur 0 -- -- 95
2020-03-19 08:00:00 7.5 2 Este 6 Sudeste 0 -- -- 100
2020-03-19 07:00:00 7.1 0 Calma 5 Nordeste 0 -- -- 100
2020-03-19 06:00:00 7.3 0 Calma 4 Sudeste 0 -- -- 100
2020-03-19 05:00:00 6.6 0 Calma 4 Sudeste 0 -- -- 100
2020-03-19 04:00:00 7.4 0 Calma 3 Nordeste 0 -- -- 100
2020-03-19 03:00:00 6 0 Calma 3 Sudoeste 0 -- -- 100
2020-03-19 02:00:00 5.9 0 Calma 3 Noroeste 0 -- -- 100
2020-03-19 01:00:00 6.3 0 Calma 4 Norte 0 -- -- 100
2020-03-19 00:00:00 7.1 2 Norte 2 Norte 0 -- -- 100
2020-03-18 23:00:00 7.4 0 Calma 2 Noroeste 0 -- -- 100
2020-03-18 22:00:00 7.6 0 Calma 3 Norte 0 -- -- 100
2020-03-18 21:00:00 8.6 2 Noroeste 3 Norte 0 -- -- 99
2020-03-18 20:00:00 9.2 0 Calma 3 Oeste 0 -- -- 96
2020-03-18 19:00:00 10.9 0 Calma 8 Sudoeste 0 -- -- 90
2020-03-18 18:00:00 12.5 4 Sudoeste 13 Sur 0 -- -- 81
2020-03-18 17:00:00 13.5 6 Sudoeste 17 Sudoeste 0 -- -- 74
2020-03-18 16:00:00 14 6 Sudoeste 15 Sur 0 -- -- 73
2020-03-18 15:00:00 13.6 4 Oeste 16 Sudoeste 0 -- -- 68
2020-03-18 14:00:00 13.7 9 Sur 19 Sur 0 -- -- 74
2020-03-18 13:00:00 13.5 5 Sudoeste 14 Sudoeste 0 -- -- 73
2020-03-18 12:00:00 11.7 2 Sudoeste 7 Sur 0 -- -- 80
2020-03-18 11:00:00 9.8 0 Calma 4 Sur 0 -- -- 89
2020-03-18 10:00:00 8.2 0 Calma 3 Este 0 -- -- 96
2020-03-18 09:00:00 5.8 0 Calma 2 Nordeste 0 -- -- 100
2020-03-18 08:00:00 4.6 0 Calma 2 Nordeste 0 -- -- 100
2020-03-18 07:00:00 4 0 Calma 0 Calma 0 -- -- 100
2020-03-18 06:00:00 4.5 0 Calma 3 Este 0 -- -- 100
2020-03-18 05:00:00 4.8 0 Calma 4 Este 0 -- -- 100
2020-03-18 04:00:00 4.9 0 Calma 2 Norte 0 -- -- 100
2020-03-18 03:00:00 4.9 0 Calma 2 Norte 0 -- -- 100
2020-03-18 02:00:00 6.6 2 Norte 4 Norte 0 -- -- 100
2020-03-18 01:00:00 6.1 0 Calma 2 Oeste 0 -- -- 100
2020-03-18 00:00:00 5.6 0 Calma 4 Norte 0 -- -- 100
2020-03-17 23:00:00 6.1 0 Calma 3 Norte 0 -- -- 100
2020-03-17 22:00:00 6.5 0 Calma 2 Norte 0 -- -- 100
2020-03-17 21:00:00 6.9 0 Calma 4 Norte 0 -- -- 100
2020-03-17 20:00:00 7.7 0 Calma 2 Norte 0 -- -- 100
2020-03-17 19:00:00 9.3 0 Calma 6 Sudoeste 0 -- -- 96
2020-03-17 18:00:00 10.6 3 Oeste 7 Oeste 0 -- -- 90
2020-03-17 17:00:00 10.6 2 Sudeste 8 Este 0 -- -- 90
2020-03-17 16:00:00 11.1 4 Este 8 Este 0 -- -- 84
2020-03-17 15:00:00 10 2 Sudeste 4 Sudeste 0 -- -- 94
2020-03-17 14:00:00 9 2 Sur 5 Nordeste 0 -- -- 100
2020-03-17 13:00:00 6.8 3 Sur 4 Sudeste 0 -- -- 100
2020-03-17 12:00:00 6.5 0 Calma 4 Sudeste 0 -- -- 100
2020-03-17 11:00:00 6.8 0 Calma 15 Noroeste 0 -- -- 100
2020-03-17 10:00:00 5.5 9 Norte 20 Norte 0 -- -- 100
2020-03-17 09:00:00 5.5 2 Nordeste 4 Oeste 0 -- -- 100
2020-03-17 08:00:00 5.2 5 Noroeste 26 Nordeste 0 -- -- 100
2020-03-17 07:00:00 5.1 14 Norte 29 Noroeste 0 -- -- 100
2020-03-17 06:00:00 5.2 14 Norte 29 Norte 0 -- -- 100
2020-03-17 05:00:00 5.1 15 Norte 28 Norte 0 -- -- 100
2020-03-17 04:00:00 5.1 6 Norte 18 Norte 0 -- -- 100
2020-03-17 03:00:00 5 9 Este 21 Este 0 -- -- 100
2020-03-17 02:00:00 5.1 3 Este 22 Este 0.2 -- -- 100
2020-03-17 01:00:00 5 6 Nordeste 23 Este 0 -- -- 100
2020-03-17 00:00:00 4.9 7 Norte 24 Norte 0 -- -- 100
2020-03-16 23:00:00 4.9 4 Sudeste 18 Nordeste 0.2 -- -- 100
2020-03-16 22:00:00 4.9 4 Sudeste 19 Este 0.4 -- -- 100
2020-03-16 21:00:00 4.8 8 Este 21 Sudeste 0.2 -- -- 100
2020-03-16 20:00:00 4.7 6 Sudeste 24 Este 0.4 -- -- 100
2020-03-16 19:00:00 4.7 12 Este 27 Sudeste 0.4 -- -- 100
2020-03-16 18:00:00 4.7 6 Este 33 Este 0.4 -- -- 100
2020-03-16 17:00:00 4.6 8 Este 20 Este 0.2 -- -- 100
2020-03-16 16:00:00 4.4 7 Sudoeste 29 Noroeste 0 -- -- 100
2020-03-16 15:00:00 4.1 12 Norte 30 Norte 0 -- -- 100
2020-03-16 14:00:00 4 10 Norte 24 Noroeste 0 -- -- 100
2020-03-16 13:00:00 3.8 5 Este 24 Norte 0.4 -- -- 99
2020-03-16 12:00:00 3.6 9 Norte 27 Norte 1 -- -- 97
2020-03-16 11:00:00 3.3 13 Norte 27 Norte 0.4 -- -- 99
2020-03-16 10:00:00 2.9 12 Norte 27 Norte 0.2 -- -- 96
2020-03-16 09:00:00 2.5 8 Norte 21 Norte 0.8 -- -- 99
2020-03-16 08:00:00 1.6 3 Sudeste 14 Sudeste 2.8 -- -- 99
2020-03-16 07:00:00 2.8 3 Norte 14 Noroeste 4.8 -- -- 98
2020-03-16 06:00:00 3.1 4 Nordeste 13 Nordeste 3.2 -- -- 97
2020-03-16 05:00:00 3 3 Nordeste 22 Nordeste 1.6 -- -- 97
2020-03-16 04:00:00 3.1 7 Nordeste 21 Nordeste 1.2 -- -- 96
2020-03-16 03:00:00 3 8 Nordeste 21 Norte 5.2 -- -- 97
2020-03-16 02:00:00 3 3 Nordeste 21 Norte 3 -- -- 97
2020-03-16 01:00:00 3.3 7 Norte 21 Norte 5.2 -- -- 96
2020-03-16 00:00:00 4.4 13 Norte 24 Norte 1 -- -- 95
2020-03-15 23:00:00 4.4 0 Calma 23 Norte 3.6 -- -- 99
2020-03-15 22:00:00 5 4 Norte 32 Noroeste 15.2 -- -- 98
2020-03-15 21:00:00 6.9 12 Norte 27 Norte 3 -- -- 99
2020-03-15 20:00:00 8.2 4 Sur 9 Norte 4 -- -- 100
2020-03-15 19:00:00 9.4 3 Nordeste 9 Este 0 -- -- 94
2020-03-15 18:00:00 10.9 3 Norte 13 Sur 0.6 -- -- 92
2020-03-15 17:00:00 13.7 7 Sudoeste 26 Sudoeste 0 -- -- 64
2020-03-15 16:00:00 14.9 13 Sur 27 Sudoeste 0 -- -- 55
2020-03-15 15:00:00 16.3 14 Sur 35 Sur 0 -- -- 57
2020-03-15 14:00:00 15.7 18 Sur 35 Sur 0 -- -- 54
2020-03-15 13:00:00 15.1 15 Sur 37 Sudoeste 0 -- -- 51
2020-03-15 12:00:00 13.9 17 Sur 38 Sur 0 -- -- 52
2020-03-15 11:00:00 12.5 15 Sur 35 Sur 0 -- -- 46
2020-03-15 10:00:00 11.9 8 Sur 16 Sur 0 -- -- 50
2020-03-15 09:00:00 9.4 5 Sur 13 Sudoeste 0 -- -- 58
2020-03-15 08:00:00 6.5 2 Norte 6 Sudoeste 0 -- -- 70
2020-03-15 07:00:00 5.4 2 Nordeste 10 Este 0 -- -- 74
2020-03-15 06:00:00 5.7 3 Este 8 Sudeste 0 -- -- 71
2020-03-15 05:00:00 4.9 2 Norte 5 Sudeste 0 -- -- 73
2020-03-15 04:00:00 5.3 0 Calma 8 Este 0 -- -- 70
2020-03-15 03:00:00 3.5 3 Noroeste 7 Nordeste 0 -- -- 77
2020-03-15 02:00:00 0.7 0 Calma 7 Norte 0 -- -- 84
2020-03-15 01:00:00 1.8 2 Nordeste 8 Norte 0 -- -- 76
2020-03-15 00:00:00 0.6 0 Calma 4 Sudoeste 0 -- -- 88
2020-03-14 23:00:00 1.5 0 Calma 3 Nordeste 0 -- -- 87
2020-03-14 22:00:00 1.4 0 Calma 3 Norte 0 -- -- 76
2020-03-14 21:00:00 2.2 2 Norte 4 Norte 0 -- -- 93
2020-03-14 20:00:00 3.4 2 Oeste 29 Norte 0 -- -- 91
2020-03-14 19:00:00 5 13 Norte 30 Norte 0 -- -- 88
2020-03-14 18:00:00 6.2 15 Norte 30 Norte 0 -- -- 82
2020-03-14 17:00:00 7.2 15 Norte 28 Noroeste 0 -- -- 76
2020-03-14 16:00:00 7.9 11 Norte 30 Nordeste 0 -- -- 72
2020-03-14 15:00:00 6.9 18 Norte 34 Norte 0 -- -- 75
2020-03-14 14:00:00 6.5 18 Norte 30 Norte 0 -- -- 77
2020-03-14 13:00:00 6.8 8 Norte 24 Noroeste 0 -- -- 76
2020-03-14 12:00:00 6.2 5 Noroeste 21 Noroeste 0 -- -- 79
2020-03-14 11:00:00 5.5 9 Oeste 31 Noroeste 0 -- -- 75
2020-03-14 10:00:00 3.5 13 Norte 28 Norte 0 -- -- 90
2020-03-14 09:00:00 1.9 17 Norte 33 Norte 0 -- -- 98
2020-03-14 08:00:00 1.6 12 Norte 31 Nordeste 0 -- -- 98
2020-03-14 07:00:00 1.8 18 Norte 30 Norte 0 -- -- 100
2020-03-14 06:00:00 1.9 8 Norte 21 Nordeste 0 -- -- 100
2020-03-14 05:00:00 1.9 6 Norte 27 Norte 0 -- -- 100
2020-03-14 04:00:00 2 10 Norte 25 Norte 0 -- -- 98
2020-03-14 03:00:00 2.3 12 Norte 29 Norte 0 -- -- 97
2020-03-14 02:00:00 2.5 11 Norte 31 Norte 0 -- -- 100
2020-03-14 01:00:00 2.5 12 Norte 29 Norte 0 -- -- 98
2020-03-14 00:00:00 2.6 10 Norte 32 Nordeste 0 -- -- 98
2020-03-13 23:00:00 3.1 20 Norte 33 Norte 0 -- -- 93
2020-03-13 22:00:00 3.5 12 Norte 31 Norte 0 -- -- 89
2020-03-13 21:00:00 3.8 18 Norte 36 Norte 0 -- -- 90
2020-03-13 20:00:00 3.5 16 Norte 36 Norte 0 -- -- 100
2020-03-13 19:00:00 3 15 Norte 30 Norte 0 -- -- 100
2020-03-13 18:00:00 2.5 16 Norte 37 Norte 0 -- -- 100
2020-03-13 17:00:00 2.3 22 Norte 40 Norte 0 -- -- 100
2020-03-13 16:00:00 2.5 21 Norte 37 Norte 0 -- -- 100
2020-03-13 15:00:00 3 16 Norte 34 Norte 0 -- -- 100
2020-03-13 14:00:00 3.3 17 Norte 32 Nordeste 0 -- -- 100
2020-03-13 13:00:00 3.5 13 Norte 31 Norte 0.2 -- -- 100
2020-03-13 12:00:00 3.9 9 Norte 31 Norte 0 -- -- 100
2020-03-13 11:00:00 3.9 6 Nordeste 31 Norte 0.2 -- -- 100
2020-03-13 10:00:00 3.7 10 Norte 36 Norte 0 -- -- 100
2020-03-13 09:00:00 3.6 10 Nordeste 36 Este 0.2 -- -- 100
2020-03-13 08:00:00 3.7 8 Este 30 Este 0.2 -- -- 100
2020-03-13 07:00:00 3.4 8 Nordeste 27 Este 0.2 -- -- 100
2020-03-13 06:00:00 3.5 6 Sur 33 Este 0 -- -- 100
2020-03-13 05:00:00 3.2 8 Este 31 Este 0.2 -- -- 100
2020-03-13 04:00:00 3.6 8 Norte 39 Norte 0.4 -- -- 100
2020-03-13 03:00:00 4.6 6 Noroeste 23 Este 0.4 -- -- 100
2020-03-13 02:00:00 4.7 10 Noroeste 28 Noroeste 0.4 -- -- 100
2020-03-13 01:00:00 4.8 12 Norte 36 Norte 0.4 -- -- 100
2020-03-13 00:00:00 5.4 11 Norte 43 Norte 0.2 -- -- 100
2020-03-12 23:00:00 6.7 6 Norte 32 Nordeste 0.6 -- -- 100
2020-03-12 22:00:00 6.5 7 Norte 31 Norte 0.6 -- -- 100
2020-03-12 21:00:00 6.7 8 Nordeste 34 Noroeste 0.2 -- -- 100
2020-03-12 20:00:00 7.1 14 Norte 40 Norte 0.4 -- -- 100
2020-03-12 19:00:00 7.4 8 Norte 40 Norte 0.2 -- -- 100
2020-03-12 18:00:00 7.6 14 Norte 34 Norte 0 -- -- 100
2020-03-12 17:00:00 7.5 14 Norte 36 Norte 0 -- -- 100
2020-03-12 16:00:00 7.9 12 Norte 32 Norte 0 -- -- 100
2020-03-12 15:00:00 8.2 20 Norte 33 Norte 0 -- -- 100
2020-03-12 14:00:00 8.4 18 Norte 33 Norte 0 -- -- 100
2020-03-12 13:00:00 8.8 17 Norte 32 Norte 0 -- -- 99
2020-03-12 12:00:00 9.7 16 Norte 29 Norte 0 -- -- 95
2020-03-12 11:00:00 9.7 10 Norte 25 Nordeste 0 -- -- 92
2020-03-12 10:00:00 8.3 13 Norte 24 Norte 0 -- -- 97
2020-03-12 09:00:00 8.4 4 Nordeste 18 Nordeste 0 -- -- 95
2020-03-12 08:00:00 7.8 2 Oeste 9 Noroeste 0 -- -- 98
2020-03-12 07:00:00 8.4 0 Calma 3 Sudoeste 0 -- -- 93
2020-03-12 06:00:00 9 0 Calma 3 Este 0 -- -- 82
2020-03-12 05:00:00 10 0 Calma 6 Nordeste 0 -- -- 68
2020-03-12 04:00:00 9.9 0 Calma 3 Nordeste 0 -- -- 67
2020-03-12 03:00:00 10.1 0 Calma 5 Norte 0 -- -- 68
2020-03-12 02:00:00 10.3 2 Noroeste 5 Norte 0 -- -- 71
2020-03-12 01:00:00 11.2 2 Norte 5 Norte 0 -- -- 68
2020-03-12 00:00:00 12.4 2 Norte 9 Norte 0 -- -- 60
2020-03-11 23:00:00 11.4 5 Norte 9 Norte 0 -- -- 67
2020-03-11 22:00:00 11.9 5 Norte 9 Norte 0 -- -- 68
2020-03-11 21:00:00 12 4 Norte 7 Norte 0 -- -- 67
2020-03-11 20:00:00 12.1 3 Norte 4 Norte 0 -- -- 65
2020-03-11 19:00:00 14 0 Calma 10 Sudoeste 0 -- -- 56
2020-03-11 18:00:00 17.7 4 Sudoeste 13 Sudoeste 0 -- -- 41
2020-03-11 17:00:00 19.4 8 Sudoeste 20 Sudoeste 0 -- -- 37
2020-03-11 16:00:00 20.2 7 Sudoeste 16 Sudoeste 0 -- -- 32
2020-03-11 15:00:00 19.7 8 Sudoeste 19 Sudoeste 0 -- -- 32
2020-03-11 14:00:00 18.8 10 Sur 18 Sur 0 -- -- 49
2020-03-11 13:00:00 17.6 7 Este 14 Sudoeste 0 -- -- 53
2020-03-11 12:00:00 16.5 5 Sur 10 Sur 0 -- -- 58
2020-03-11 11:00:00 15.5 4 Nordeste 17 Nordeste 0 -- -- 54
2020-03-11 10:00:00 12.8 3 Sur 5 Sur 0 -- -- 72
2020-03-11 09:00:00 9.9 2 Sur 6 Sur 0 -- -- 84
2020-03-11 08:00:00 6.2 0 Calma 4 Noroeste 0 -- -- 95
2020-03-11 07:00:00 5.5 0 Calma 4 Norte 0 -- -- 94
2020-03-11 06:00:00 5.2 0 Calma 8 Norte 0 -- -- 89
2020-03-11 05:00:00 6.2 2 Sudeste 13 Nordeste 0 -- -- 83
2020-03-11 04:00:00 5.7 2 Noroeste 9 Nordeste 0 -- -- 86
2020-03-11 03:00:00 6.8 3 Nordeste 14 Nordeste 0 -- -- 78
2020-03-11 02:00:00 6.4 2 Norte 14 Nordeste 0 -- -- 82
2020-03-11 01:00:00 6.7 5 Norte 9 Norte 0 -- -- 82
2020-03-11 00:00:00 6.2 4 Nordeste 8 Norte 0 -- -- 89
2020-03-10 23:00:00 6.3 3 Norte 8 Nordeste 0 -- -- 85
2020-03-10 22:00:00 5.2 2 Noroeste 13 Este 0 -- -- 83
2020-03-10 21:00:00 7.7 3 Norte 9 Nordeste 0 -- -- 53
2020-03-10 20:00:00 6.8 4 Nordeste 19 Norte 0 -- -- 77
2020-03-10 19:00:00 8.1 10 Norte 20 Norte 0 -- -- 95
2020-03-10 18:00:00 9.5 12 Norte 30 Norte 0 -- -- 86
2020-03-10 17:00:00 12.5 9 Norte 29 Norte 0 -- -- 60
2020-03-10 16:00:00 13.6 8 Norte 20 Norte 0 -- -- 36
2020-03-10 15:00:00 13.5 9 Norte 27 Norte 0 -- -- 36
2020-03-10 14:00:00 13.9 8 Norte 22 Nordeste 0 -- -- 26
2020-03-10 13:00:00 14.1 4 Nordeste 24 Norte 0 -- -- 29
2020-03-10 12:00:00 12.2 6 Noroeste 27 Norte 0 -- -- 28
2020-03-10 11:00:00 11 14 Nordeste 25 Este 0 -- -- 29
2020-03-10 10:00:00 10 7 Nordeste 16 Nordeste 0 -- -- 38
2020-03-10 09:00:00 7.7 6 Nordeste 18 Norte 0 -- -- 60
2020-03-10 08:00:00 7 6 Norte 20 Nordeste 0 -- -- 70
2020-03-10 07:00:00 5.1 5 Nordeste 15 Norte 0 -- -- 90
2020-03-10 06:00:00 4.4 3 Nordeste 21 Norte 0 -- -- 93
2020-03-10 05:00:00 4.4 4 Norte 17 Noroeste 0 -- -- 93
2020-03-10 04:00:00 4.4 7 Norte 22 Norte 0 -- -- 91
2020-03-10 03:00:00 3.7 3 Norte 11 Sudeste 0 -- -- 93
2020-03-10 02:00:00 3.7 4 Nordeste 19 Norte 0 -- -- 94
2020-03-10 01:00:00 3.5 4 Noroeste 24 Noroeste 0 -- -- 97
2020-03-10 00:00:00 3.6 5 Noroeste 24 Noroeste 0 -- -- 97
2020-03-09 23:00:00 3.5 7 Sudoeste 20 Noroeste 0.2 -- -- 98
2020-03-09 22:00:00 3.4 4 Sur 19 Noroeste 0 -- -- 96
2020-03-09 21:00:00 3.4 6 Sur 22 Sudoeste 0 -- -- 93
2020-03-09 20:00:00 3.6 7 Oeste 25 Noroeste 0 -- -- 89
2020-03-09 19:00:00 3.2 5 Sudoeste 21 Noroeste 0 -- -- 92
2020-03-09 18:00:00 3.2 6 Oeste 27 Noroeste 0 -- -- 93
2020-03-09 17:00:00 3.6 8 Oeste 31 Oeste 0.2 -- -- 94
2020-03-09 16:00:00 4.2 9 Norte 30 Nordeste 0.2 -- -- 90
2020-03-09 15:00:00 4 8 Norte 26 Noroeste 0.8 -- -- 94
2020-03-09 14:00:00 4 9 Norte 26 Noroeste 1.6 -- -- 93
2020-03-09 13:00:00 3.9 8 Oeste 26 Noroeste 1.6 -- -- 93
2020-03-09 12:00:00 2.9 8 Noroeste 35 Nordeste 3.8 -- -- 96
2020-03-09 11:00:00 2.9 7 Noroeste 30 Norte 3.4 -- -- 96
2020-03-09 10:00:00 2.6 7 Oeste 24 Norte 2.6 -- -- 98
2020-03-09 09:00:00 2.7 8 Noroeste 28 Noroeste 3 -- -- 96
2020-03-09 08:00:00 3.1 9 Noroeste 33 Noroeste 0.6 -- -- 94
2020-03-09 07:00:00 2.2 9 Oeste 25 Noroeste 1.6 -- -- 96
2020-03-09 06:00:00 2.6 7 Norte 33 Nordeste 2.6 -- -- 96
2020-03-09 05:00:00 2.4 4 Noroeste 18 Norte 2.8 -- -- 97
2020-03-09 04:00:00 2.5 5 Sudoeste 30 Oeste 3.4 -- -- 99
2020-03-09 03:00:00 3.5 4 Noroeste 26 Norte 0.8 -- -- 97
2020-03-09 02:00:00 3.8 7 Oeste 26 Nordeste 2.6 -- -- 96
2020-03-09 01:00:00 3.8 4 Noroeste 26 Nordeste 0.8 -- -- 97
2020-03-09 00:00:00 3.9 4 Norte 25 Norte 0.8 -- -- 97
2020-03-08 23:00:00 4.3 7 Norte 31 Norte 1 -- -- 95
2020-03-08 22:00:00 4.9 10 Norte 42 Nordeste 0 -- -- 94
2020-03-08 21:00:00 4.9 4 Oeste 26 Norte 0 -- -- 95
2020-03-08 20:00:00 5.3 7 Norte 23 Oeste 0.4 -- -- 95
2020-03-08 19:00:00 6.3 4 Noroeste 18 Nordeste 0 -- -- 95
2020-03-08 18:00:00 7.4 3 Norte 10 Norte 0 -- -- 90
2020-03-08 17:00:00 8.6 0 Calma 13 Norte 0 -- -- 79
2020-03-08 16:00:00 9.1 5 Norte 13 Nordeste 0 -- -- 73
2020-03-08 15:00:00 9.6 5 Nordeste 19 Nordeste 0 -- -- 71
2020-03-08 14:00:00 12.2 4 Oeste 19 Sudoeste 0 -- -- 62
2020-03-08 13:00:00 10 3 Sudeste 13 Sur 0 -- -- 70
2020-03-08 12:00:00 8.9 4 Sur 8 Sudoeste 0 -- -- 69
2020-03-08 11:00:00 7.2 2 Sudeste 8 Oeste 0 -- -- 81
2020-03-08 10:00:00 6.1 0 Calma 3 Sudeste 0 -- -- 88
2020-03-08 09:00:00 2.2 0 Calma 5 Nordeste 0 -- -- 100
2020-03-08 08:00:00 -0.1 0 Calma 3 Este 0 -- -- 100
2020-03-08 07:00:00 -1.4 0 Calma 3 Este 0 -- -- 100
2020-03-08 06:00:00 -0.5 0 Calma 3 Oeste 0 -- -- 100
2020-03-08 05:00:00 -0.3 0 Calma 3 Norte 0 -- -- 100
2020-03-08 04:00:00 -0.1 0 Calma 3 Norte 0 -- -- 100
2020-03-08 03:00:00 0.5 0 Calma 2 Noroeste 0 -- -- 100
2020-03-08 02:00:00 -0.2 0 Calma 6 Norte 0 -- -- 100
2020-03-08 01:00:00 0.8 0 Calma 4 Norte 0 -- -- 100
2020-03-08 00:00:00 0.8 0 Calma 5 Norte 0 -- -- 100